Time;durP1;ratioP1;P1;durP2;ratioP2;P2;SDS_P1;SDS_P2;PMS_P1;PMS_P2;Temp;Humidity;BMP_temperature;BMP_pressure;BME280_temperature;BME280_humidity;BME280_pressure;Samples;Min_cycle;Max_cycle;Signal;HPM_P1;HPM_P2
2021/04/11 00:00:36;;;;;;;29.67;22.13;;;11.90;91.60;;;;;;5115586;28;20496;-65
2021/04/11 00:03:04;;;;;;;24.70;20.13;;;12.00;92.10;;;;;;5115762;28;20031;-66
2021/04/11 00:05:36;;;;;;;27.48;23.13;;;11.90;91.70;;;;;;5108034;28;20338;-65
2021/04/11 00:08:04;;;;;;;29.90;23.92;;;12.00;92.10;;;;;;5114596;28;20028;-65
2021/04/11 00:10:36;;;;;;;30.88;24.08;;;12.00;92.20;;;;;;5115554;28;20039;-66
2021/04/11 00:13:04;;;;;;;31.08;24.27;;;11.90;94.10;;;;;;5115608;28;20051;-66
2021/04/11 00:15:31;;;;;;;29.90;23.92;;;11.90;95.00;;;;;;5115591;28;20027;-66
2021/04/11 00:17:56;;;;;;;34.17;26.08;;;11.80;96.10;;;;;;5114986;28;20023;-65
2021/04/11 00:20:22;;;;;;;35.72;25.25;;;11.80;96.50;;;;;;5115870;28;20016;-65
2021/04/11 00:22:48;;;;;;;31.48;24.90;;;11.80;97.30;;;;;;5115351;28;20071;-65
2021/04/11 00:25:23;;;;;;;33.50;28.15;;;11.70;99.00;;;;;;5096932;28;20381;-65
2021/04/11 00:27:48;;;;;;;35.50;27.52;;;11.70;99.90;;;;;;5115328;28;20027;-65
2021/04/11 00:30:16;;;;;;;32.65;26.38;;;11.70;99.70;;;;;;5115316;28;20016;-65
2021/04/11 00:32:41;;;;;;;37.22;29.33;;;11.70;99.20;;;;;;5113368;28;20031;-65
2021/04/11 00:35:08;;;;;;;30.73;26.63;;;11.60;98.00;;;;;;5102860;28;20015;-65
2021/04/11 00:37:34;;;;;;;37.15;29.35;;;11.60;98.50;;;;;;5101972;28;20052;-65
2021/04/11 00:40:00;;;;;;;38.05;29.85;;;11.60;97.10;;;;;;5114626;28;20051;-65
2021/04/11 00:42:32;;;;;;;31.50;27.95;;;11.60;97.90;;;;;;5115166;28;20478;-66
2021/04/11 00:45:27;;;;;;;29.90;26.45;;;11.60;98.10;;;;;;5114965;28;20460;-67
2021/04/11 00:47:53;;;;;;;33.07;27.63;;;11.70;98.40;;;;;;5096335;28;20039;-67
2021/04/11 00:50:19;;;;;;;28.27;25.33;;;11.60;97.50;;;;;;5100943;28;20841;-67
2021/04/11 00:52:45;;;;;;;39.80;29.08;;;11.60;99.00;;;;;;5115214;28;20031;-67
2021/04/11 00:55:12;;;;;;;32.83;28.45;;;11.60;99.50;;;;;;5114475;28;20015;-67
2021/04/11 00:57:39;;;;;;;34.30;29.33;;;11.60;99.90;;;;;;5114721;28;20027;-66
2021/04/11 01:00:06;;;;;;;30.17;26.63;;;11.70;99.90;;;;;;5114560;28;20517;-66
2021/04/11 01:02:32;;;;;;;29.67;26.10;;;11.60;99.90;;;;;;5114508;28;20012;-67
2021/04/11 01:04:58;;;;;;;27.77;24.77;;;11.60;99.90;;;;;;5114767;28;20012;-67
2021/04/11 01:07:25;;;;;;;30.83;26.90;;;11.60;99.90;;;;;;5114904;28;20115;-67
2021/04/11 01:09:52;;;;;;;36.67;27.50;;;11.60;99.90;;;;;;5114364;28;20019;-67
2021/04/11 01:12:21;;;;;;;30.85;27.63;;;11.60;99.90;;;;;;5114494;28;20022;-67
2021/04/11 01:14:48;;;;;;;33.45;27.75;;;11.60;99.90;;;;;;5114365;28;20027;-67
2021/04/11 01:17:19;;;;;;;29.98;26.38;;;11.60;99.90;;;;;;5114005;28;20532;-67
2021/04/11 01:19:45;;;;;;;32.63;29.10;;;11.60;99.90;;;;;;5114466;28;20106;-67
2021/04/11 01:22:14;;;;;;;29.77;26.38;;;11.70;99.90;;;;;;5114260;28;20525;-67
2021/04/11 01:24:51;;;;;;;28.35;25.17;;;11.60;99.90;;;;;;5095799;28;20019;-67
2021/04/11 01:27:20;;;;;;;30.38;26.70;;;11.60;99.90;;;;;;5114192;28;20059;-67
2021/04/11 01:29:46;;;;;;;35.00;27.23;;;11.60;99.90;;;;;;5114230;28;20058;-67
2021/04/11 01:32:13;;;;;;;25.80;22.23;;;11.60;99.90;;;;;;5113974;28;20031;-67
2021/04/11 01:34:41;;;;;;;26.30;22.67;;;11.60;99.90;;;;;;5114129;28;20050;-67
2021/04/11 01:37:10;;;;;;;26.65;23.85;;;11.60;97.90;;;;;;5101376;28;20539;-67
2021/04/11 01:39:41;;;;;;;25.23;22.52;;;11.60;99.90;;;;;;5112532;28;20031;-68
2021/04/11 01:42:08;;;;;;;27.52;23.58;;;11.60;99.20;;;;;;5114330;28;20152;-67
2021/04/11 01:44:37;;;;;;;30.73;25.63;;;11.60;99.90;;;;;;5113757;28;20127;-68
2021/04/11 01:47:05;;;;;;;28.20;24.77;;;11.70;99.90;;;;;;5113422;28;20024;-67
2021/04/11 01:49:31;;;;;;;23.75;20.17;;;11.60;99.90;;;;;;5113924;28;20080;-67
2021/04/11 01:52:10;;;;;;;25.30;21.58;;;11.50;98.60;;;;;;5113843;28;20024;-67
2021/04/11 01:54:37;;;;;;;27.00;23.35;;;11.60;99.20;;;;;;5113382;28;20023;-67
2021/04/11 01:57:28;;;;;;;24.90;22.25;;;11.60;99.90;;;;;;5113624;28;20099;-67
2021/04/11 02:00:20;;;;;;;28.00;21.88;;;11.60;99.90;;;;;;5095080;28;20027;-67
2021/04/11 02:02:45;;;;;;;25.95;23.17;;;11.70;96.80;;;;;;5113641;28;20024;-68
2021/04/11 02:05:17;;;;;;;24.77;22.05;;;11.60;98.70;;;;;;5113645;28;20026;-68
2021/04/11 02:07:44;;;;;;;27.75;24.42;;;11.60;97.80;;;;;;5113719;28;20388;-68
2021/04/11 02:10:14;;;;;;;27.13;23.77;;;11.60;99.00;;;;;;5113115;28;20103;-67
2021/04/11 02:12:39;;;;;;;24.88;22.25;;;11.70;98.90;;;;;;5113731;28;20039;-67
2021/04/11 02:15:18;;;;;;;27.38;23.67;;;11.70;98.80;;;;;;5113355;28;20051;-67
2021/04/11 02:17:44;;;;;;;26.27;23.40;;;11.70;98.20;;;;;;5093210;28;20496;-67
2021/04/11 02:20:11;;;;;;;22.25;20.02;;;11.70;98.80;;;;;;5087998;28;20016;-67
2021/04/11 02:22:38;;;;;;;25.95;23.27;;;11.70;98.10;;;;;;5113370;28;20092;-68
2021/04/11 02:25:07;;;;;;;29.95;24.45;;;11.70;99.90;;;;;;5113169;28;20043;-67
2021/04/11 02:27:33;;;;;;;28.30;23.77;;;11.70;99.90;;;;;;5113145;28;20027;-67
2021/04/11 02:30:10;;;;;;;26.48;23.40;;;11.40;99.90;;;;;;5113522;28;20077;-67
2021/04/11 02:32:36;;;;;;;30.33;24.60;;;11.50;99.90;;;;;;5112867;28;20015;-67
2021/04/11 02:35:05;;;;;;;26.10;23.35;;;11.50;99.90;;;;;;5105440;28;20061;-67
2021/04/11 02:37:34;;;;;;;30.73;25.95;;;11.50;99.90;;;;;;5112959;28;20388;-67
2021/04/11 02:40:00;;;;;;;27.98;23.60;;;11.50;99.90;;;;;;5112935;28;20477;-67
2021/04/11 02:42:34;;;;;;;23.33;20.92;;;11.50;99.90;;;;;;5113122;28;20023;-68
2021/04/11 02:45:14;;;;;;;29.23;23.98;;;11.40;99.90;;;;;;5113436;28;20107;-67
2021/04/11 02:47:40;;;;;;;27.07;23.33;;;11.50;99.90;;;;;;5112613;28;20389;-67
2021/04/11 02:50:07;;;;;;;28.02;24.38;;;11.40;99.90;;;;;;5113179;28;20022;-67
2021/04/11 02:53:01;;;;;;;26.90;23.65;;;11.50;99.90;;;;;;5094921;28;20068;-67
2021/04/11 02:55:30;;;;;;;21.73;19.48;;;11.40;99.90;;;;;;5072701;28;20035;-67
2021/04/11 02:57:56;;;;;;;24.88;20.05;;;11.30;99.90;;;;;;5112845;28;20028;-67
2021/04/11 03:00:23;;;;;;;22.30;19.13;;;11.30;99.90;;;;;;5112970;28;20016;-67
2021/04/11 03:02:50;;;;;;;22.17;19.80;;;11.30;99.90;;;;;;5112999;28;20489;-67
2021/04/11 03:05:20;;;;;;;22.75;17.92;;;11.30;99.90;;;;;;5098872;28;20019;-67
2021/04/11 03:07:53;;;;;;;21.27;19.02;;;11.20;99.90;;;;;;5099876;28;20128;-67
2021/04/11 03:10:41;;;;;;;18.23;15.88;;;11.30;99.90;;;;;;5108471;28;20016;-67
2021/04/11 03:13:08;;;;;;;19.98;17.75;;;11.20;99.90;;;;;;5111528;28;20380;-67
2021/04/11 03:15:34;;;;;;;20.20;17.83;;;11.20;99.90;;;;;;5116640;28;20603;-65
2021/04/11 03:18:00;;;;;;;21.42;17.65;;;11.10;99.90;;;;;;5116789;28;20047;-66
2021/04/11 03:20:30;;;;;;;18.30;15.95;;;11.30;99.90;;;;;;5116797;28;20476;-66
2021/04/11 03:22:57;;;;;;;20.38;18.23;;;11.10;99.90;;;;;;5116592;28;20407;-66
2021/04/11 03:25:25;;;;;;;21.70;15.77;;;11.20;99.90;;;;;;5116499;28;20510;-66
2021/04/11 03:28:03;;;;;;;19.08;16.58;;;11.10;99.90;;;;;;5116516;28;20039;-66
2021/04/11 03:30:39;;;;;;;18.40;15.75;;;11.20;99.90;;;;;;5116660;28;20536;-67
2021/04/11 03:33:15;;;;;;;17.50;15.63;;;11.20;99.90;;;;;;5116405;28;20028;-66
2021/04/11 03:35:43;;;;;;;17.20;14.63;;;11.20;99.90;;;;;;5116332;28;20081;-66
2021/04/11 03:38:12;;;;;;;17.63;14.93;;;11.20;99.90;;;;;;5116146;28;20100;-66
2021/04/11 03:40:41;;;;;;;15.88;14.30;;;11.20;99.90;;;;;;5098029;28;20032;-66
2021/04/11 03:43:12;;;;;;;17.48;14.75;;;11.10;99.90;;;;;;5116068;28;20038;-66
2021/04/11 03:45:39;;;;;;;15.73;14.15;;;11.20;99.90;;;;;;5097953;28;20109;-66
2021/04/11 03:48:18;;;;;;;15.23;13.63;;;11.10;99.90;;;;;;5115962;28;20039;-66
2021/04/11 03:50:50;;;;;;;17.08;15.18;;;11.10;99.90;;;;;;5116094;28;20023;-66
2021/04/11 03:53:36;;;;;;;16.17;13.70;;;11.10;99.90;;;;;;5115409;28;20058;-66
2021/04/11 03:56:06;;;;;;;14.68;13.18;;;11.10;99.90;;;;;;5115377;28;20031;-66
2021/04/11 03:58:37;;;;;;;16.42;14.32;;;11.10;99.90;;;;;;5116154;28;20098;-66
2021/04/11 04:01:08;;;;;;;16.70;13.80;;;11.00;99.90;;;;;;5115947;28;20076;-66
2021/04/11 04:03:35;;;;;;;15.52;13.75;;;10.90;99.90;;;;;;5115606;28;20020;-65
2021/04/11 04:06:10;;;;;;;17.50;14.52;;;11.00;99.90;;;;;;5115811;28;20429;-65
2021/04/11 04:08:36;;;;;;;;;;;11.10;99.90;;;;;;5116112;28;20096;-65
2021/04/11 04:11:20;;;;;;;16.02;14.27;;;11.00;99.90;;;;;;5115565;28;20337;-65
2021/04/11 04:13:58;;;;;;;14.70;13.15;;;11.00;99.90;;;;;;5103344;28;20076;-65
2021/04/11 04:16:33;;;;;;;16.58;12.73;;;11.00;99.90;;;;;;5103153;28;20032;-66
2021/04/11 04:19:07;;;;;;;14.98;12.85;;;11.00;99.90;;;;;;5100024;28;20508;-66
2021/04/11 04:22:02;;;;;;;16.33;12.40;;;11.00;99.90;;;;;;5102845;28;20027;-66
2021/04/11 04:25:03;;;;;;;15.32;11.57;;;11.10;99.90;;;;;;5110157;28;20094;-65
2021/04/11 04:27:38;;;;;;;15.30;10.85;;;11.00;99.90;;;;;;5114825;28;20226;-65
2021/04/11 04:30:13;;;;;;;;;;;11.00;99.90;;;;;;5101187;28;20031;-66
2021/04/11 04:33:13;;;;;;;10.32;9.07;;;10.90;99.90;;;;;;5115082;28;19945;-66
2021/04/11 04:35:53;;;;;;;10.50;9.45;;;10.90;99.90;;;;;;5082764;28;20114;-66
2021/04/11 04:38:48;;;;;;;10.48;9.40;;;10.90;99.90;;;;;;5114879;28;20115;-66
2021/04/11 04:41:28;;;;;;;10.43;8.60;;;10.90;99.90;;;;;;5107709;28;20046;-65
2021/04/11 04:44:00;;;;;;;12.10;9.55;;;10.90;99.90;;;;;;5114962;28;20027;-65
2021/04/11 04:46:57;;;;;;;10.07;9.00;;;11.00;99.90;;;;;;5103977;28;20552;-66
2021/04/11 04:49:33;;;;;;;9.40;8.45;;;11.00;99.90;;;;;;5094828;28;20032;-66
2021/04/11 04:52:19;;;;;;;8.85;7.95;;;11.10;99.90;;;;;;5109217;28;20035;-66
2021/04/11 04:54:49;;;;;;;11.27;9.23;;;11.00;99.90;;;;;;5114926;28;20063;-65
2021/04/11 04:57:43;;;;;;;11.38;9.73;;;11.00;99.90;;;;;;5114498;28;20031;-66
2021/04/11 05:00:32;;;;;;;9.00;8.10;;;11.10;99.90;;;;;;5107091;28;20042;-66
2021/04/11 05:03:13;;;;;;;10.30;8.77;;;11.00;99.90;;;;;;5114929;28;20031;-65
2021/04/11 05:05:49;;;;;;;11.00;9.48;;;11.10;99.90;;;;;;5096131;28;20390;-64
2021/04/11 05:08:20;;;;;;;11.20;9.60;;;11.10;99.90;;;;;;5114849;28;20046;-65
2021/04/11 05:10:52;;;;;;;12.20;8.77;;;11.10;99.90;;;;;;5100043;28;20050;-65
2021/04/11 05:13:23;;;;;;;12.85;10.65;;;11.00;99.90;;;;;;5114565;28;20464;-65
2021/04/11 05:15:58;;;;;;;13.50;9.38;;;11.00;99.90;;;;;;5114358;28;20482;-66
2021/04/11 05:18:30;;;;;;;13.30;9.82;;;11.00;99.90;;;;;;5114330;28;20016;-67
2021/04/11 05:21:02;;;;;;;14.10;9.80;;;10.90;99.90;;;;;;5114244;28;20429;-65
2021/04/11 05:23:35;;;;;;;13.65;10.15;;;10.90;99.90;;;;;;5114220;28;20026;-66
2021/04/11 05:26:20;;;;;;;13.27;10.50;;;10.90;99.90;;;;;;5114050;28;20495;-66
2021/04/11 05:29:02;;;;;;;14.93;10.50;;;10.80;99.90;;;;;;5095751;28;20304;-66
2021/04/11 05:31:33;;;;;;;10.85;9.65;;;10.90;99.90;;;;;;5113371;28;20107;-66
2021/04/11 05:34:01;;;;;;;11.35;8.90;;;10.90;99.90;;;;;;5101842;28;20102;-65
2021/04/11 05:36:50;;;;;;;11.18;9.20;;;10.90;99.90;;;;;;5113886;28;20038;-66
2021/04/11 05:39:28;;;;;;;15.30;10.25;;;10.90;99.90;;;;;;5095882;28;20065;-66
2021/04/11 05:42:27;;;;;;;13.32;8.55;;;10.80;99.90;;;;;;5114237;28;20023;-66
2021/04/11 05:45:08;;;;;;;11.45;8.18;;;10.80;99.90;;;;;;5113924;28;20027;-66
2021/04/11 05:48:01;;;;;;;11.98;9.05;;;10.80;99.90;;;;;;5105174;28;20038;-66
2021/04/11 05:50:40;;;;;;;12.68;8.10;;;10.90;99.90;;;;;;5111928;28;20008;-66
2021/04/11 05:53:18;;;;;;;9.15;7.60;;;10.80;99.90;;;;;;5101632;28;20370;-66
2021/04/11 05:56:02;;;;;;;8.60;7.18;;;10.90;99.90;;;;;;5100882;28;20103;-66
2021/04/11 05:58:32;;;;;;;10.38;9.02;;;10.80;99.90;;;;;;5113341;28;20019;-66
2021/04/11 06:01:15;;;;;;;11.27;8.30;;;10.80;99.90;;;;;;5113565;28;20476;-66
2021/04/11 06:04:06;;;;;;;10.88;8.35;;;10.80;99.90;;;;;;5113366;28;20023;-66
2021/04/11 06:06:50;;;;;;;11.30;7.93;;;10.80;99.90;;;;;;5113583;28;20468;-67
2021/04/11 06:09:28;;;;;;;11.55;7.75;;;10.80;99.90;;;;;;5095083;28;20446;-68
2021/04/11 06:12:28;;;;;;;8.55;7.68;;;10.80;99.90;;;;;;5113377;28;20026;-68
2021/04/11 06:14:56;;;;;;;8.93;7.50;;;10.80;99.90;;;;;;5102783;28;20032;-67
2021/04/11 06:17:42;;;;;;;9.23;6.82;;;10.80;99.90;;;;;;5113308;28;20123;-67
2021/04/11 06:20:08;;;;;;;8.90;7.70;;;10.80;99.90;;;;;;5099922;28;20027;-67
2021/04/11 06:22:38;;;;;;;9.63;7.82;;;10.70;99.90;;;;;;5112614;28;20052;-67
2021/04/11 06:25:08;;;;;;;9.55;7.82;;;10.80;99.90;;;;;;5094993;28;20560;-67
2021/04/11 06:27:42;;;;;;;11.95;7.95;;;10.90;99.90;;;;;;5113039;28;20030;-67
2021/04/11 06:30:08;;;;;;;8.95;8.05;;;11.00;99.90;;;;;;5113190;28;20499;-67
2021/04/11 06:32:42;;;;;;;8.57;7.63;;;11.00;99.90;;;;;;5113110;28;20019;-67
2021/04/11 06:35:10;;;;;;;9.05;6.80;;;11.00;99.90;;;;;;5113040;28;20020;-68
2021/04/11 06:37:40;;;;;;;10.40;7.50;;;11.00;99.90;;;;;;5112951;28;20415;-68
2021/04/11 06:40:29;;;;;;;9.63;7.63;;;10.90;99.90;;;;;;5112993;28;20028;-67
2021/04/11 06:43:22;;;;;;;6.75;6.05;;;10.90;99.90;;;;;;5112951;28;20036;-66
2021/04/11 06:46:04;;;;;;;9.57;6.38;;;11.00;99.90;;;;;;5104829;28;20031;-67
2021/04/11 06:48:59;;;;;;;7.22;5.95;;;11.00;99.90;;;;;;5117089;28;20437;-67
2021/04/11 06:51:55;;;;;;;7.65;6.15;;;11.10;99.90;;;;;;5117116;28;20089;-67
2021/04/11 06:55:04;;;;;;;6.32;5.60;;;11.10;99.90;;;;;;5105651;28;20019;-67
2021/04/11 06:57:50;;;;;;;6.88;5.93;;;11.10;99.90;;;;;;5058465;28;20050;-67
2021/04/11 07:00:35;;;;;;;5.85;5.20;;;11.10;99.90;;;;;;5098690;28;20060;-67
2021/04/11 07:03:38;;;;;;;5.85;4.88;;;11.10;99.90;;;;;;5117054;28;20027;-67
2021/04/11 07:06:34;;;;;;;5.10;4.47;;;11.00;99.90;;;;;;5103371;28;20426;-68
2021/04/11 07:09:28;;;;;;;5.97;5.38;;;11.10;99.90;;;;;;5116728;28;20043;-68
2021/04/11 07:12:15;;;;;;;5.57;5.05;;;11.20;99.90;;;;;;5116880;28;20016;-68
2021/04/11 07:15:02;;;;;;;5.78;5.20;;;11.20;99.90;;;;;;5084495;28;20537;-68
2021/04/11 07:18:04;;;;;;;6.00;4.97;;;11.20;99.90;;;;;;5116694;28;20076;-68
2021/04/11 07:20:53;;;;;;;5.57;5.07;;;11.30;99.90;;;;;;5115561;28;20058;-69
2021/04/11 07:23:47;;;;;;;5.00;4.50;;;11.10;99.90;;;;;;5089093;28;20034;-69
2021/04/11 07:26:46;;;;;;;4.18;3.88;;;11.30;99.90;;;;;;5112488;28;20376;-68
2021/04/11 07:29:32;;;;;;;4.50;4.07;;;11.30;99.90;;;;;;5112840;28;20039;-68
2021/04/11 07:32:12;;;;;;;5.30;4.10;;;11.30;99.90;;;;;;5110886;28;20484;-68
2021/04/11 07:35:06;;;;;;;4.57;3.92;;;11.30;99.90;;;;;;5116411;28;20028;-68
2021/04/11 07:37:41;;;;;;;5.47;4.00;;;11.50;99.90;;;;;;5105300;28;20059;-69
2021/04/11 07:40:17;;;;;;;3.90;3.50;;;11.50;99.90;;;;;;5112737;28;20019;-69
2021/04/11 07:43:04;;;;;;;4.10;3.70;;;11.60;99.90;;;;;;5116192;28;20055;-69
2021/04/11 07:45:53;;;;;;;4.55;3.75;;;11.60;99.90;;;;;;5116089;28;20022;-69
2021/04/11 07:48:18;;;;;;;3.65;3.35;;;11.60;99.90;;;;;;5116041;28;20031;-69
2021/04/11 07:50:56;;;;;;;4.43;3.78;;;11.60;99.90;;;;;;5116166;28;20046;-69
2021/04/11 07:53:30;;;;;;;5.07;4.60;;;11.70;99.90;;;;;;5115561;28;20019;-67
2021/04/11 07:56:22;;;;;;;4.57;4.18;;;11.70;99.90;;;;;;5115359;28;20023;-67
2021/04/11 07:59:02;;;;;;;4.97;4.43;;;11.60;99.90;;;;;;5110165;28;20063;-67
2021/04/11 08:01:52;;;;;;;5.32;4.35;;;11.60;99.90;;;;;;5099882;28;20052;-67
2021/04/11 08:04:20;;;;;;;4.85;4.35;;;11.50;99.90;;;;;;5115815;28;20012;-67
2021/04/11 08:07:17;;;;;;;4.88;4.47;;;11.60;99.90;;;;;;5106097;28;20043;-68
2021/04/11 08:09:51;;;;;;;5.45;4.78;;;11.60;99.90;;;;;;5102188;28;20024;-68
2021/04/11 08:12:49;;;;;;;5.15;4.65;;;11.70;99.90;;;;;;5115618;28;20060;-68
2021/04/11 08:15:59;;;;;;;5.72;5.22;;;11.80;99.90;;;;;;5083934;28;20040;-68
2021/04/11 08:18:43;;;;;;;5.63;5.05;;;11.90;99.90;;;;;;5089652;28;20071;-68
2021/04/11 08:21:27;;;;;;;5.25;4.78;;;11.90;99.90;;;;;;5115437;28;20020;-68
2021/04/11 08:24:10;;;;;;;6.47;5.45;;;11.70;99.90;;;;;;5097123;28;20114;-68
2021/04/11 08:26:50;;;;;;;5.85;5.28;;;11.80;99.90;;;;;;5115238;28;20034;-68
2021/04/11 08:29:31;;;;;;;5.47;4.97;;;11.90;99.90;;;;;;5115124;28;20035;-68
2021/04/11 08:32:31;;;;;;;5.93;5.43;;;11.90;99.90;;;;;;5102691;28;20499;-68
2021/04/11 08:35:20;;;;;;;5.07;4.32;;;12.00;99.90;;;;;;5115170;28;20380;-68
2021/04/11 08:38:07;;;;;;;5.32;4.75;;;12.00;99.90;;;;;;5114981;28;20054;-68
2021/04/11 08:40:52;;;;;;;4.68;4.28;;;12.10;99.90;;;;;;5115366;28;20015;-68
2021/04/11 08:43:20;;;;;;;5.55;5.05;;;12.10;99.90;;;;;;5114950;28;20027;-68
2021/04/11 08:46:06;;;;;;;5.15;4.28;;;12.10;99.90;;;;;;5114912;28;20019;-68
2021/04/11 08:49:01;;;;;;;4.57;4.18;;;12.10;99.90;;;;;;5114772;28;20043;-68
2021/04/11 08:51:36;;;;;;;4.57;4.22;;;12.20;99.90;;;;;;5115113;28;20372;-68
2021/04/11 08:54:23;;;;;;;4.40;3.90;;;12.20;99.90;;;;;;5096573;28;20067;-69
2021/04/11 08:57:20;;;;;;;3.20;2.90;;;12.10;99.90;;;;;;5114851;28;20027;-68
2021/04/11 09:00:03;;;;;;;3.60;2.83;;;12.10;99.90;;;;;;5114843;28;20028;-68
2021/04/11 09:02:56;;;;;;;2.75;2.55;;;12.00;99.90;;;;;;5114572;28;20031;-68
2021/04/11 09:06:00;;;;;;;3.63;3.40;;;12.00;99.90;;;;;;5114655;28;20027;-68
2021/04/11 09:08:37;;;;;;;3.33;2.85;;;12.10;99.90;;;;;;5113840;28;20200;-68
2021/04/11 09:11:28;;;;;;;4.85;3.45;;;12.10;99.90;;;;;;5114774;28;20008;-68
2021/04/11 09:14:02;;;;;;;3.60;3.30;;;12.10;99.90;;;;;;5114431;28;20023;-68
2021/04/11 09:16:53;;;;;;;3.40;3.10;;;12.10;99.90;;;;;;5110108;28;20028;-68
2021/04/11 09:19:36;;;;;;;4.10;3.30;;;12.20;99.90;;;;;;5089854;28;20088;-68
2021/04/11 09:22:17;;;;;;;3.20;2.95;;;12.20;99.90;;;;;;5102359;28;20027;-68
2021/04/11 09:25:12;;;;;;;3.55;3.22;;;12.10;99.90;;;;;;5075502;28;23017;-68
2021/04/11 09:28:01;;;;;;;4.05;3.75;;;12.20;99.90;;;;;;5066274;28;20044;-68
2021/04/11 09:30:32;;;;;;;4.68;3.30;;;12.30;99.90;;;;;;5014644;28;20035;-67
2021/04/11 09:33:17;;;;;;;4.78;2.97;;;12.40;99.90;;;;;;5069253;28;20051;-68
2021/04/11 09:36:05;;;;;;;2.83;2.60;;;12.30;99.90;;;;;;5076951;28;20040;-68
2021/04/11 09:38:31;;;;;;;2.72;2.50;;;12.30;99.90;;;;;;5036816;28;20119;-67
2021/04/11 09:41:08;;;;;;;3.30;2.55;;;12.30;99.90;;;;;;5061467;28;20119;-68
2021/04/11 09:44:08;;;;;;;2.67;2.47;;;12.30;99.90;;;;;;5069197;28;20394;-68
2021/04/11 09:46:59;;;;;;;3.28;2.70;;;12.30;99.90;;;;;;5024943;28;20036;-68
2021/04/11 09:49:45;;;;;;;2.58;2.38;;;12.30;99.90;;;;;;5048164;28;20049;-68
2021/04/11 09:52:19;;;;;;;2.47;2.28;;;12.50;99.90;;;;;;5064092;28;20106;-68
2021/04/11 09:54:49;;;;;;;2.05;1.95;;;12.50;99.90;;;;;;5044537;28;20462;-68
2021/04/11 09:57:43;;;;;;;4.18;2.40;;;12.70;99.90;;;;;;5062635;28;20095;-68
2021/04/11 10:00:11;;;;;;;2.47;2.10;;;12.70;99.90;;;;;;5029191;28;20035;-68
2021/04/11 10:03:17;;;;;;;2.95;2.63;;;12.80;99.90;;;;;;5067099;28;20094;-68
2021/04/11 10:06:10;;;;;;;3.47;3.17;;;12.60;99.90;;;;;;5031287;28;20388;-69
2021/04/11 10:08:39;;;;;;;4.70;4.05;;;12.80;99.90;;;;;;5038151;28;20048;-68
2021/04/11 10:11:37;;;;;;;3.55;3.25;;;13.10;99.90;;;;;;5059993;28;20037;-68
2021/04/11 10:14:21;;;;;;;3.03;2.72;;;13.10;99.90;;;;;;5048876;28;20455;-69
2021/04/11 10:16:57;;;;;;;3.33;3.03;;;13.10;99.90;;;;;;5069606;28;20043;-68
2021/04/11 10:19:32;;;;;;;3.58;3.28;;;13.00;99.90;;;;;;5066350;28;20044;-68
2021/04/11 10:22:35;;;;;;;4.50;3.65;;;13.10;99.90;;;;;;5065251;28;20430;-68
2021/04/11 10:25:25;;;;;;;3.80;2.92;;;13.10;99.40;;;;;;5045801;28;20123;-68
2021/04/11 10:28:09;;;;;;;3.40;3.10;;;13.10;99.30;;;;;;5053153;28;20040;-69
2021/04/11 10:30:36;;;;;;;2.37;2.13;;;13.00;97.70;;;;;;5034240;28;20032;-68
2021/04/11 10:33:12;;;;;;;2.53;2.33;;;12.80;98.40;;;;;;5064712;28;20040;-70
2021/04/11 10:35:43;;;;;;;3.08;2.72;;;12.80;99.90;;;;;;5063876;28;20040;-69
2021/04/11 10:38:48;;;;;;;2.45;2.25;;;13.00;99.90;;;;;;5059823;28;20033;-69
2021/04/11 10:41:39;;;;;;;1.88;1.58;;;12.90;97.00;;;;;;5040074;28;20045;-69
2021/04/11 10:44:42;;;;;;;2.45;2.00;;;12.80;96.50;;;;;;5039843;28;20067;-69
2021/04/11 10:47:33;;;;;;;3.90;2.72;;;12.80;98.30;;;;;;5033720;28;20029;-70
2021/04/11 10:50:20;;;;;;;3.20;2.00;;;12.80;98.10;;;;;;5034319;28;20052;-69
2021/04/11 10:53:03;;;;;;;2.10;1.90;;;12.60;99.20;;;;;;5064286;28;20131;-70
2021/04/11 10:55:58;;;;;;;2.35;1.90;;;12.60;98.60;;;;;;5032768;28;20419;-69
2021/04/11 10:58:24;;;;;;;2.65;1.60;;;12.70;99.90;;;;;;5067125;28;20037;-69
2021/04/11 11:01:26;;;;;;;3.72;1.67;;;12.60;99.90;;;;;;5077448;28;20036;-69
2021/04/11 11:03:58;;;;;;;3.45;1.55;;;12.70;99.90;;;;;;5031169;28;20089;-68
2021/04/11 11:06:51;;;;;;;1.65;0.80;;;12.60;99.40;;;;;;5061655;28;20097;-68
2021/04/11 11:09:31;;;;;;;1.20;1.10;;;12.60;98.10;;;;;;5055754;28;20069;-69
2021/04/11 11:12:21;;;;;;;1.52;1.20;;;12.60;99.10;;;;;;5041819;28;20116;-69
2021/04/11 11:15:11;;;;;;;1.63;1.52;;;12.50;97.50;;;;;;5073806;28;20032;-69
2021/04/11 11:17:49;;;;;;;1.88;1.27;;;12.50;98.30;;;;;;5036933;28;20033;-69
2021/04/11 11:20:26;;;;;;;1.55;1.10;;;12.70;99.30;;;;;;5052631;28;20124;-69
2021/04/11 11:23:13;;;;;;;1.20;1.02;;;12.70;98.30;;;;;;5063823;28;20402;-68
2021/04/11 11:25:57;;;;;;;2.30;1.38;;;12.70;98.20;;;;;;5062023;28;20505;-69
2021/04/11 11:28:49;;;;;;;2.65;1.20;;;12.70;98.30;;;;;;5056792;28;20488;-68
2021/04/11 11:31:41;;;;;;;2.55;1.40;;;12.80;97.10;;;;;;5064856;28;20120;-69
2021/04/11 11:34:19;;;;;;;2.65;1.88;;;12.80;97.00;;;;;;5049656;28;20041;-69
2021/04/11 11:37:01;;;;;;;2.10;1.85;;;12.80;98.70;;;;;;5051393;28;20477;-69
2021/04/11 11:39:46;;;;;;;2.13;1.95;;;12.90;97.90;;;;;;5042467;28;20505;-70
2021/04/11 11:42:40;;;;;;;2.78;1.98;;;12.80;97.90;;;;;;5065777;28;20516;-69
2021/04/11 11:45:22;;;;;;;2.00;1.75;;;12.80;97.40;;;;;;5039396;28;20037;-69
2021/04/11 11:48:12;;;;;;;2.72;2.40;;;12.80;97.80;;;;;;5072941;28;20040;-69
2021/04/11 11:51:06;;;;;;;2.30;2.10;;;12.80;97.50;;;;;;5035751;28;20047;-68
2021/04/11 11:53:53;;;;;;;3.45;2.67;;;12.90;96.50;;;;;;5051806;28;20036;-68
2021/04/11 11:56:42;;;;;;;2.58;2.22;;;12.80;97.80;;;;;;5064400;28;20048;-68
2021/04/11 11:59:28;;;;;;;3.38;2.78;;;12.80;97.90;;;;;;5007340;28;20092;-68
2021/04/11 12:02:21;;;;;;;2.65;2.30;;;12.70;94.60;;;;;;5060166;28;20040;-68
2021/04/11 12:04:53;;;;;;;3.20;2.97;;;12.70;97.00;;;;;;5064285;28;20474;-67
2021/04/11 12:07:36;;;;;;;3.42;3.13;;;12.90;97.60;;;;;;5072140;28;20903;-69
2021/04/11 12:10:28;;;;;;;4.55;3.33;;;12.90;96.90;;;;;;5035957;28;20071;-69
2021/04/11 12:13:15;;;;;;;3.20;2.88;;;12.90;95.60;;;;;;5062548;28;20036;-68
2021/04/11 12:15:59;;;;;;;3.70;2.97;;;13.10;96.40;;;;;;5070016;28;20048;-69
2021/04/11 12:18:50;;;;;;;3.63;3.33;;;13.10;96.10;;;;;;5073159;28;20120;-68
2021/04/11 12:21:39;;;;;;;3.67;3.00;;;13.30;96.20;;;;;;5062453;28;20927;-69
2021/04/11 12:24:20;;;;;;;3.65;2.95;;;13.30;96.00;;;;;;5044923;28;20517;-69
2021/04/11 12:26:52;;;;;;;4.45;3.50;;;13.50;94.90;;;;;;5060818;28;20036;-69
2021/04/11 12:29:29;;;;;;;3.50;3.20;;;13.60;95.80;;;;;;5065400;28;20128;-69
2021/04/11 12:32:16;;;;;;;4.03;3.03;;;13.60;94.90;;;;;;5056101;28;20067;-68
2021/04/11 12:35:19;;;;;;;3.75;3.45;;;13.70;94.10;;;;;;5063946;28;20041;-69
2021/04/11 12:37:48;;;;;;;4.43;3.88;;;13.70;93.50;;;;;;5031486;28;20385;-69
2021/04/11 12:40:41;;;;;;;3.20;2.90;;;13.70;94.20;;;;;;5066682;28;20178;-68
2021/04/11 12:43:57;;;;;;;3.70;3.08;;;13.90;97.30;;;;;;5011464;28;20032;-68
2021/04/11 12:46:44;;;;;;;4.47;2.83;;;13.90;99.90;;;;;;4973719;28;20109;-68
2021/04/11 12:49:12;;;;;;;3.75;3.10;;;13.80;99.90;;;;;;5004082;28;20586;-69
2021/04/11 12:51:57;;;;;;;2.97;2.78;;;13.80;99.90;;;;;;5050642;28;20051;-69
2021/04/11 12:55:06;;;;;;;3.20;2.90;;;14.00;99.90;;;;;;5064234;28;20035;-68
2021/04/11 12:57:43;;;;;;;3.92;3.08;;;13.80;99.90;;;;;;5027007;28;20505;-68
2021/04/11 13:00:21;;;;;;;3.58;3.22;;;13.70;99.90;;;;;;5061625;28;20036;-69
2021/04/11 13:03:02;;;;;;;3.75;3.22;;;13.80;99.90;;;;;;5065862;28;20554;-68
2021/04/11 13:05:51;;;;;;;3.53;2.50;;;13.90;99.90;;;;;;5025493;28;20434;-67
2021/04/11 13:08:36;;;;;;;3.72;2.10;;;13.80;99.90;;;;;;5076593;28;20420;-69
2021/04/11 13:11:16;;;;;;;3.70;2.17;;;13.80;99.90;;;;;;5040923;28;20032;-68
2021/04/11 13:13:44;;;;;;;2.20;1.88;;;13.80;99.90;;;;;;5061607;28;20094;-69
2021/04/11 13:16:19;;;;;;;1.75;1.65;;;13.80;99.90;;;;;;5073104;28;20091;-69
2021/04/11 13:19:03;;;;;;;2.20;2.00;;;13.80;99.90;;;;;;5054487;28;20037;-69
2021/04/11 13:21:57;;;;;;;2.30;2.10;;;13.80;99.90;;;;;;5045198;28;20493;-69
2021/04/11 13:24:34;;;;;;;2.55;1.67;;;13.90;99.90;;;;;;5071060;28;20036;-68
2021/04/11 13:27:08;;;;;;;1.83;1.67;;;13.80;99.90;;;;;;5060390;28;20037;-68
2021/04/11 13:29:53;;;;;;;2.85;1.92;;;13.90;99.90;;;;;;5059599;28;20048;-69
2021/04/11 13:32:27;;;;;;;3.30;2.25;;;13.80;99.90;;;;;;5069253;28;20040;-68
2021/04/11 13:35:07;;;;;;;2.70;1.50;;;13.90;99.90;;;;;;5051904;28;20037;-68
2021/04/11 13:37:45;;;;;;;1.58;1.48;;;13.90;99.90;;;;;;5054200;28;20502;-68
2021/04/11 13:40:16;;;;;;;3.13;2.10;;;14.00;99.90;;;;;;5059938;28;20036;-69